Time;durP1;ratioP1;P1;durP2;ratioP2;P2;SDS_P1;SDS_P2;PMS_P1;PMS_P2;Temp;Humidity;BMP_temperature;BMP_pressure;BME280_temperature;BME280_humidity;BME280_pressure;Samples;Min_cycle;Max_cycle;Signal;HPM_P1;HPM_P2
2023/02/06 00:02:04;;;;;;;2.30;2.10;;;;;;;18.56;45.00;99030.88;4934426;29;20216;-92
2023/02/06 00:04:31;;;;;;;2.90;2.33;;;;;;;19.29;45.08;99169.88;4941608;29;20209;-90
2023/02/06 00:06:57;;;;;;;4.70;2.23;;;;;;;19.36;45.01;99184.78;4939311;29;20224;-91
2023/02/06 00:09:24;;;;;;;2.60;2.20;;;;;;;18.38;45.13;99034.75;4951455;29;20207;-91
2023/02/06 00:11:50;;;;;;;2.00;1.90;;;;;;;18.58;44.98;99057.31;4921476;29;20239;-93
2023/02/06 00:14:17;;;;;;;2.40;2.20;;;;;;;20.16;44.91;99325.16;4939073;29;20208;-92
2023/02/06 00:16:44;;;;;;;2.20;2.00;;;;;;;19.36;44.96;99189.00;4942040;29;20252;-91
2023/02/06 00:19:10;;;;;;;2.60;2.20;;;;;;;19.98;45.22;99294.25;4939302;29;20223;-90
2023/02/06 00:21:37;;;;;;;2.37;2.10;;;;;;;19.91;44.77;99296.31;4926941;29;20220;-92
2023/02/06 00:24:04;;;;;;;2.20;2.00;;;;;;;20.20;44.76;99339.03;4911466;29;20674;-92
2023/02/06 00:26:31;;;;;;;2.50;2.30;;;;;;;20.24;44.65;99348.63;4908231;29;20232;-90
2023/02/06 00:28:57;;;;;;;2.70;2.50;;;;;;;20.06;44.71;99332.13;4940089;29;20248;-91
2023/02/06 00:31:24;;;;;;;2.80;2.50;;;;;;;20.43;44.67;99383.06;4924266;29;20235;-91
2023/02/06 00:33:51;;;;;;;2.50;2.30;;;;;;;20.08;45.10;99321.22;4934197;29;20205;-90
2023/02/06 00:36:17;;;;;;;2.50;2.30;;;;;;;18.40;44.67;99048.47;4957573;29;20224;-90
2023/02/06 00:38:44;;;;;;;2.70;2.50;;;;;;;19.46;44.94;99210.09;4911648;29;20206;-91
2023/02/06 00:41:11;;;;;;;3.00;2.17;;;;;;;19.47;44.85;99208.41;4937525;29;20306;-90
2023/02/06 00:43:37;;;;;;;3.27;2.47;;;;;;;20.34;44.67;99362.06;4949680;29;20284;-90
2023/02/06 00:46:04;;;;;;;2.60;2.40;;;;;;;20.44;45.31;99404.41;4941243;29;20225;-90
2023/02/06 00:48:31;;;;;;;2.63;2.43;;;;;;;20.21;44.83;99357.00;4957273;29;20211;-91
2023/02/06 00:50:57;;;;;;;2.40;2.20;;;;;;;20.44;44.85;99389.97;4949955;29;20192;-91
2023/02/06 00:53:24;;;;;;;2.60;2.40;;;;;;;20.06;44.80;99327.91;4956894;28;20592;-90
2023/02/06 00:55:50;;;;;;;2.60;2.40;;;;;;;19.82;45.07;99294.06;4927923;29;20238;-89
2023/02/06 00:58:17;;;;;;;2.43;2.20;;;;;;;19.78;44.82;99301.44;4942969;29;20228;-92
2023/02/06 01:00:44;;;;;;;2.40;2.20;;;;;;;18.42;45.07;99061.31;4927201;29;20259;-90
2023/02/06 01:03:10;;;;;;;2.40;2.20;;;;;;;18.66;44.70;99103.66;4934781;29;20662;-91
2023/02/06 01:05:37;;;;;;;2.40;2.20;;;;;;;19.24;44.94;99217.09;4918053;29;20255;-91
2023/02/06 01:08:04;;;;;;;2.53;2.33;;;;;;;18.92;44.84;99152.94;4924574;29;20200;-91
2023/02/06 01:10:31;;;;;;;2.50;2.30;;;;;;;18.34;44.89;99059.88;4943142;29;20232;-91
2023/02/06 01:12:57;;;;;;;2.47;2.27;;;;;;;20.07;44.88;99360.28;4908688;29;20550;-91
2023/02/06 01:15:24;;;;;;;2.83;2.40;;;;;;;20.58;44.92;99455.59;4955963;29;20622;-91
2023/02/06 01:17:51;;;;;;;2.30;2.10;;;;;;;18.77;44.85;99166.38;4943724;29;20211;-91
2023/02/06 01:20:17;;;;;;;2.40;2.20;;;;;;;19.47;44.76;99255.19;4938883;29;20205;-90
2023/02/06 01:22:44;;;;;;;2.30;2.10;;;;;;;19.90;44.70;99325.16;4935295;29;20204;-92
2023/02/06 01:25:11;;;;;;;2.70;2.50;;;;;;;20.13;44.61;99370.06;4936402;29;20298;-91
2023/02/06 01:27:38;;;;;;;2.27;2.07;;;;;;;19.85;44.85;99318.88;4943312;29;20277;-91
2023/02/06 01:30:05;;;;;;;2.93;2.50;;;;;;;20.52;44.88;99439.84;4928655;29;20259;-92
2023/02/06 01:32:35;;;;;;;3.73;2.30;;;;;;;20.23;44.56;99377.50;4910797;29;20365;-91
2023/02/06 01:35:01;;;;;;;2.20;2.00;;;;;;;19.96;44.78;99326.44;4951705;28;20667;-91
2023/02/06 01:37:29;;;;;;;2.30;2.07;;;;;;;19.50;44.67;99250.28;4911086;29;20227;-91
2023/02/06 01:39:55;;;;;;;2.80;2.57;;;;;;;18.26;44.67;99043.25;4940794;29;20205;-91
2023/02/06 01:42:22;;;;;;;2.40;2.20;;;;;;;18.07;44.89;98980.09;4937503;29;20271;-91
2023/02/06 01:44:49;;;;;;;2.33;2.13;;;;;;;19.09;44.57;99179.53;4937498;29;20205;-90
2023/02/06 01:47:15;;;;;;;2.40;2.20;;;;;;;19.94;44.80;99311.81;4947143;29;20323;-90
2023/02/06 01:49:43;;;;;;;3.10;2.50;;;;;;;18.72;44.84;99102.41;4945333;29;20296;-91
2023/02/06 01:52:14;;;;;;;2.33;2.13;;;;;;;18.39;44.71;99031.47;4915854;29;20201;-90
2023/02/06 01:54:42;;;;;;;2.50;2.30;;;;;;;18.89;44.68;99117.09;4944486;29;20228;-90
2023/02/06 01:57:17;;;;;;;2.53;2.33;;;;;;;19.14;44.58;99170.53;4962998;28;20708;-91
2023/02/06 01:59:47;;;;;;;2.50;2.30;;;;;;;20.42;44.65;99375.31;4929744;29;20208;-92
2023/02/06 02:02:13;;;;;;;2.33;2.13;;;;;;;19.81;44.73;99264.22;4915198;29;20310;-90
2023/02/06 02:04:40;;;;;;;2.40;2.20;;;;;;;19.70;44.56;99252.47;4960586;29;20200;-90
2023/02/06 02:07:12;;;;;;;2.37;2.17;;;;;;;20.12;44.82;99319.75;4958094;28;20221;-92
2023/02/06 02:09:39;;;;;;;2.53;2.33;;;;;;;19.24;44.76;99163.56;4927474;29;20212;-91
2023/02/06 02:12:05;;;;;;;2.60;2.40;;;;;;;20.58;44.66;99403.59;4954222;29;20197;-90
2023/02/06 02:14:32;;;;;;;2.47;2.27;;;;;;;20.17;44.55;99315.84;4927623;29;20216;-90
2023/02/06 02:17:05;;;;;;;2.60;2.40;;;;;;;20.57;44.50;99397.59;4944828;29;20757;-91
2023/02/06 02:19:59;;;;;;;2.50;2.30;;;;;;;20.59;44.64;99407.91;4924000;29;20204;-90
2023/02/06 02:22:45;;;;;;;2.53;2.33;;;;;;;20.59;44.72;99402.81;4950432;29;20272;-91
2023/02/06 02:25:35;;;;;;;2.70;2.30;;;;;;;20.58;44.60;99414.72;4946794;29;20235;-92
2023/02/06 02:28:26;;;;;;;2.50;2.30;;;;;;;20.04;44.56;99318.41;4929665;29;20653;-91
2023/02/06 02:31:14;;;;;;;2.67;2.47;;;;;;;20.59;44.68;99423.25;4930189;29;20232;-90
2023/02/06 02:33:55;;;;;;;2.60;2.40;;;;;;;20.58;44.51;99413.81;4957701;29;20208;-90
2023/02/06 02:36:48;;;;;;;2.77;2.23;;;;;;;19.97;44.29;99312.00;4946248;29;20310;-90
2023/02/06 02:39:17;;;;;;;2.53;2.33;;;;;;;20.50;44.61;99409.91;4957802;29;20205;-90
2023/02/06 02:41:47;;;;;;;2.60;2.40;;;;;;;20.57;44.59;99422.28;4949106;29;20225;-90
2023/02/06 02:44:28;;;;;;;2.77;2.57;;;;;;;20.08;44.65;99320.34;4962181;29;20272;-91
2023/02/06 02:46:56;;;;;;;2.60;2.40;;;;;;;20.11;44.49;99338.41;4934005;29;20276;-91
2023/02/06 02:49:24;;;;;;;2.63;2.33;;;;;;;20.08;44.70;99326.34;4929311;29;20267;-90
2023/02/06 02:51:51;;;;;;;2.20;2.00;;;;;;;20.32;44.59;99386.66;4919464;29;20193;-91
2023/02/06 02:54:17;;;;;;;3.33;2.70;;;;;;;19.62;44.58;99257.84;4960877;28;20200;-90
2023/02/06 02:56:44;;;;;;;2.70;2.50;;;;;;;20.55;45.03;99419.63;4934862;29;20231;-91
2023/02/06 02:59:46;;;;;;;2.47;2.27;;;;;;;20.16;44.54;99352.38;4944920;29;20228;-90
2023/02/06 03:02:27;;;;;;;2.60;2.40;;;;;;;20.17;44.84;99356.69;4848353;29;20306;-92
2023/02/06 03:04:59;;;;;;;2.50;2.30;;;;;;;20.37;44.48;99399.69;4929346;29;20200;-91
2023/02/06 03:07:39;;;;;;;2.50;2.30;;;;;;;19.99;44.58;99349.59;4913433;29;20267;-91
2023/02/06 03:10:58;;;;;;;2.43;2.23;;;;;;;20.55;44.81;99437.53;4934873;29;20236;-90
2023/02/06 03:13:26;;;;;;;2.50;2.30;;;;;;;20.15;44.85;99364.25;4913484;29;20196;-90
2023/02/06 03:16:04;;;;;;;2.60;2.40;;;;;;;20.02;44.78;99346.38;4949640;29;20338;-90
2023/02/06 03:18:44;;;;;;;2.77;2.57;;;;;;;20.14;44.91;99367.59;4913166;29;20204;-91
2023/02/06 03:21:14;;;;;;;2.30;2.10;;;;;;;20.28;44.78;99389.75;4926905;29;20220;-90
2023/02/06 03:23:41;;;;;;;2.47;2.27;;;;;;;20.16;44.50;99370.25;4926324;29;20209;-91
2023/02/06 03:26:11;;;;;;;2.50;2.30;;;;;;;19.84;44.49;99309.47;4955024;29;20227;-90
2023/02/06 03:28:38;;;;;;;2.33;2.13;;;;;;;18.23;44.48;99061.72;4939620;29;20212;-90
2023/02/06 03:31:07;;;;;;;2.43;2.23;;;;;;;18.22;44.56;99037.06;4955016;29;20602;-91
2023/02/06 03:33:36;;;;;;;2.37;2.17;;;;;;;20.48;44.51;99437.00;4927944;29;20211;-90
2023/02/06 03:36:04;;;;;;;2.63;2.43;;;;;;;20.19;44.66;99390.88;4907189;29;20259;-91
2023/02/06 03:38:30;;;;;;;2.40;2.20;;;;;;;18.06;44.71;99034.31;4943656;29;20208;-91
2023/02/06 03:40:57;;;;;;;2.67;2.47;;;;;;;19.34;44.64;99233.91;4943673;29;20211;-90
2023/02/06 03:43:24;;;;;;;2.70;2.50;;;;;;;19.28;44.56;99206.38;4944021;29;20208;-90
2023/02/06 03:45:53;;;;;;;3.27;2.30;;;;;;;19.67;44.41;99292.19;4915822;29;20601;-90
2023/02/06 03:48:25;;;;;;;2.57;2.30;;;;;;;20.08;44.38;99345.88;4928381;29;20224;-91
2023/02/06 03:50:53;;;;;;;2.70;2.50;;;;;;;20.41;44.55;99407.66;4912673;29;20236;-91
2023/02/06 03:53:21;;;;;;;2.53;2.33;;;;;;;19.85;44.61;99301.03;4939095;29;20201;-90
2023/02/06 03:55:49;;;;;;;2.60;2.40;;;;;;;20.56;44.54;99425.59;4943751;29;20291;-91
2023/02/06 03:58:15;;;;;;;2.33;2.13;;;;;;;20.04;44.75;99328.59;4912609;29;20233;-91
2023/02/06 04:00:42;;;;;;;2.87;2.40;;;;;;;20.56;44.58;99434.16;4942614;29;20216;-91
2023/02/06 04:03:09;;;;;;;2.40;2.20;;;;;;;20.38;44.56;99399.81;4942881;29;20698;-91
2023/02/06 04:05:36;;;;;;;2.43;2.00;;;;;;;20.06;44.63;99333.00;4910165;29;20240;-90
2023/02/06 04:08:03;;;;;;;2.43;2.23;;;;;;;20.21;44.54;99366.31;4940734;29;20201;-91
2023/02/06 04:10:29;;;;;;;2.40;2.20;;;;;;;19.91;44.48;99317.63;4958710;28;20295;-90
2023/02/06 04:12:56;;;;;;;2.50;2.30;;;;;;;20.06;44.62;99321.91;4940331;29;20200;-90
2023/02/06 04:15:22;;;;;;;2.33;2.13;;;;;;;20.27;44.61;99365.03;4959203;28;20464;-90
2023/02/06 04:17:51;;;;;;;2.30;2.10;;;;;;;20.03;44.60;99325.16;4907507;29;20205;-91
2023/02/06 04:20:26;;;;;;;2.40;2.20;;;;;;;19.86;44.69;99293.47;4939423;29;20207;-90
2023/02/06 04:22:52;;;;;;;2.30;2.10;;;;;;;19.91;44.50;99298.84;4927528;29;20287;-90
2023/02/06 04:25:19;;;;;;;2.30;2.10;;;;;;;20.18;44.64;99332.91;4958843;28;20216;-90
2023/02/06 04:27:46;;;;;;;2.40;2.20;;;;;;;20.26;44.49;99345.41;4909868;29;20295;-91
2023/02/06 04:30:12;;;;;;;3.10;2.50;;;;;;;20.05;44.52;99303.19;4909893;29;20231;-90
2023/02/06 04:32:39;;;;;;;2.30;2.10;;;;;;;20.39;44.45;99358.13;4909252;29;20197;-91
2023/02/06 04:35:06;;;;;;;2.53;2.30;;;;;;;19.64;44.45;99223.13;4924479;29;20224;-90
2023/02/06 04:37:32;;;;;;;2.43;2.23;;;;;;;20.38;44.36;99358.94;4903944;29;20284;-91
2023/02/06 04:39:59;;;;;;;2.50;2.30;;;;;;;19.96;44.43;99282.19;4939854;29;20229;-90
2023/02/06 04:42:29;;;;;;;2.57;2.37;;;;;;;20.11;44.60;99305.22;4925120;29;20593;-90
2023/02/06 04:44:55;;;;;;;2.30;2.10;;;;;;;19.94;44.54;99281.19;4943388;29;20200;-91
2023/02/06 04:47:22;;;;;;;2.50;2.30;;;;;;;20.04;44.72;99300.53;4935912;29;20694;-89
2023/02/06 04:49:48;;;;;;;2.60;2.33;;;;;;;19.92;44.56;99285.31;4942899;29;20653;-92
2023/02/06 04:52:15;;;;;;;2.67;2.47;;;;;;;20.14;44.40;99313.09;4907696;29;20207;-91
2023/02/06 04:54:41;;;;;;;2.83;2.53;;;;;;;20.30;44.03;99344.81;4928695;29;20291;-91
2023/02/06 04:57:08;;;;;;;2.73;2.53;;;;;;;20.18;44.17;99320.16;4926658;29;20231;-90
2023/02/06 04:59:34;;;;;;;2.70;2.50;;;;;;;20.04;44.21;99291.19;4910241;29;20228;-90
2023/02/06 05:02:01;;;;;;;3.10;2.80;;;;;;;20.03;44.50;99294.53;4954479;29;20675;-90
2023/02/06 05:04:28;;;;;;;2.30;2.10;;;;;;;20.07;44.04;99298.16;4926577;29;20236;-91
2023/02/06 05:06:54;;;;;;;2.70;2.20;;;;;;;20.03;44.34;99299.63;4942394;29;20228;-91
2023/02/06 05:09:21;;;;;;;2.50;2.30;;;;;;;19.96;44.10;99285.59;4911672;29;20207;-91
2023/02/06 05:11:47;;;;;;;2.57;2.37;;;;;;;20.19;44.20;99319.41;4923257;29;20216;-92
2023/02/06 05:14:14;;;;;;;2.57;2.37;;;;;;;20.07;44.17;99303.28;4941610;29;20200;-91
2023/02/06 05:16:41;;;;;;;2.50;2.30;;;;;;;19.72;44.31;99244.91;4927210;29;20686;-90
2023/02/06 05:19:07;;;;;;;2.30;2.10;;;;;;;20.02;44.30;99290.22;4945916;29;20204;-91
2023/02/06 05:21:34;;;;;;;2.50;2.30;;;;;;;20.03;44.69;99294.53;4913008;29;20223;-91
2023/02/06 05:24:00;;;;;;;2.60;2.40;;;;;;;20.58;44.34;99398.50;4935626;29;20261;-90
2023/02/06 05:26:27;;;;;;;2.57;2.37;;;;;;;20.33;44.35;99346.66;4929592;29;20216;-91
2023/02/06 05:28:54;;;;;;;2.77;2.57;;;;;;;19.93;44.33;99277.75;4936715;29;20209;-90
2023/02/06 05:31:20;;;;;;;2.53;2.33;;;;;;;19.69;44.33;99231.97;4945896;29;20464;-90
2023/02/06 05:33:50;;;;;;;2.97;2.77;;;;;;;19.88;44.46;99270.59;4927592;29;20204;-90
2023/02/06 05:36:18;;;;;;;2.40;2.20;;;;;;;20.08;44.11;99325.44;4942877;29;20653;-90
2023/02/06 05:38:45;;;;;;;2.57;2.33;;;;;;;20.20;44.30;99336.47;4911938;29;20236;-90
2023/02/06 05:41:12;;;;;;;2.57;2.30;;;;;;;20.33;44.46;99347.53;4941742;29;20205;-91
2023/02/06 05:43:38;;;;;;;2.50;2.23;;;;;;;20.41;44.01;99364.25;4927987;29;20290;-89
2023/02/06 05:46:05;;;;;;;2.87;2.60;;;;;;;20.33;43.82;99332.22;4956774;28;20221;-90
2023/02/06 05:48:33;;;;;;;2.77;2.50;;;;;;;20.07;43.99;99295.63;4941834;29;20623;-92
2023/02/06 05:51:02;;;;;;;2.97;2.67;;;;;;;19.75;43.92;99237.44;4933767;29;20217;-90
2023/02/06 05:53:29;;;;;;;3.63;2.70;;;;;;;19.50;43.82;99213.69;4926828;29;20204;-91
2023/02/06 05:55:56;;;;;;;2.63;2.43;;;;;;;20.52;44.08;99376.00;4945275;29;20220;-90
2023/02/06 05:58:22;;;;;;;3.00;2.70;;;;;;;20.05;43.98;99309.94;4942714;29;20209;-91
2023/02/06 06:00:49;;;;;;;3.50;2.50;;;;;;;20.47;44.32;99390.16;4944105;29;20207;-89
2023/02/06 06:03:15;;;;;;;3.10;2.80;;;;;;;20.11;43.80;99316.31;4943928;29;20227;-90
2023/02/06 06:05:42;;;;;;;3.80;2.97;;;;;;;20.08;43.92;99310.13;4938508;29;20291;-89
2023/02/06 06:08:09;;;;;;;3.40;3.10;;;;;;;20.36;43.96;99363.06;4952822;29;20289;-90
2023/02/06 06:10:35;;;;;;;3.70;2.93;;;;;;;20.14;43.77;99336.97;4943597;29;20559;-89
2023/02/06 06:13:02;;;;;;;3.07;2.70;;;;;;;19.13;43.92;99158.56;4938445;29;20627;-87
2023/02/06 06:15:28;;;;;;;3.40;3.10;;;;;;;20.35;43.84;99362.97;4936600;29;20292;-89
2023/02/06 06:17:55;;;;;;;3.47;3.17;;;;;;;20.44;43.67;99389.06;4921320;29;20300;-89
2023/02/06 06:20:22;;;;;;;3.27;2.97;;;;;;;19.11;43.80;99180.53;4905750;29;20235;-88
2023/02/06 06:22:48;;;;;;;3.57;3.23;;;;;;;19.87;43.64;99302.88;4940196;29;20217;-88
2023/02/06 06:25:15;;;;;;;3.73;3.30;;;;;;;20.53;43.67;99407.53;4927371;29;20196;-89
2023/02/06 06:27:42;;;;;;;3.40;3.10;;;;;;;20.48;43.72;99396.13;4908914;29;20611;-88
2023/02/06 06:30:09;;;;;;;4.43;3.17;;;;;;;20.36;43.94;99368.16;4938117;29;20201;-88
2023/02/06 06:32:35;;;;;;;3.87;3.13;;;;;;;20.06;43.78;99329.56;4909326;29;20201;-88
2023/02/06 06:35:02;;;;;;;4.37;3.60;;;;;;;20.53;44.16;99420.31;4959103;29;20204;-86
2023/02/06 06:37:29;;;;;;;3.73;3.43;;;;;;;19.79;43.34;99280.22;4958093;28;20731;-89
2023/02/06 06:39:55;;;;;;;4.03;3.50;;;;;;;19.92;43.99;99300.59;4939733;29;20201;-89
2023/02/06 06:42:22;;;;;;;3.33;3.03;;;;;;;19.47;43.94;99209.31;4931271;29;20224;-89
2023/02/06 06:44:48;;;;;;;4.17;3.53;;;;;;;20.37;43.91;99380.13;4940219;29;20212;-89
2023/02/06 06:47:15;;;;;;;4.07;3.67;;;;;;;19.97;44.03;99296.69;4927282;29;20231;-89
2023/02/06 06:49:42;;;;;;;3.97;3.57;;;;;;;20.09;43.97;99312.78;4942445;29;20204;-90
2023/02/06 06:52:08;;;;;;;4.43;3.57;;;;;;;20.46;44.16;99380.72;4942810;29;20208;-89
2023/02/06 06:54:49;;;;;;;3.97;3.43;;;;;;;20.35;44.16;99368.97;4916341;29;20700;-89
2023/02/06 06:57:18;;;;;;;3.53;3.23;;;;;;;20.17;44.01;99349.03;4932159;29;20217;-90
2023/02/06 06:59:44;;;;;;;3.77;3.40;;;;;;;20.11;43.81;99318.88;4910593;29;20215;-89
2023/02/06 07:02:11;;;;;;;3.53;3.20;;;;;;;20.04;44.33;99306.50;4941284;29;20216;-89
2023/02/06 07:04:37;;;;;;;3.70;3.40;;;;;;;20.18;44.03;99331.25;4940900;29;20200;-89
2023/02/06 07:07:04;;;;;;;9.73;7.33;;;;;;;19.98;42.26;99308.66;4951415;28;20320;-89
2023/02/06 07:09:30;;;;;;;10.43;8.53;;;;;;;20.09;39.32;99320.44;4943538;29;20371;-87
2023/02/06 07:11:57;;;;;;;12.87;10.27;;;;;;;20.10;36.57;99334.97;4910588;29;20197;-89
2023/02/06 07:14:24;;;;;;;19.47;13.27;;;;;;;20.18;34.85;99344.03;4943548;29;20197;-91
2023/02/06 07:16:50;;;;;;;16.33;12.00;;;;;;;19.81;34.41;99301.63;4918473;29;20227;-88
2023/02/06 07:19:17;;;;;;;18.63;12.70;;;;;;;20.24;34.67;99376.72;4955773;28;20200;-90
2023/02/06 07:21:43;;;;;;;17.13;11.80;;;;;;;20.05;35.08;99358.44;4906524;29;20207;-89
2023/02/06 07:24:10;;;;;;;15.03;11.97;;;;;;;20.26;35.91;99395.56;4957778;29;20216;-90
2023/02/06 07:26:37;;;;;;;15.73;11.87;;;;;;;20.16;36.31;99389.00;4925940;29;20311;-89
2023/02/06 07:29:03;;;;;;;14.83;11.93;;;;;;;20.30;36.84;99403.53;4936236;29;20674;-89
2023/02/06 07:31:30;;;;;;;16.00;11.93;;;;;;;20.33;36.86;99424.16;4928940;29;20862;-89
2023/02/06 07:33:56;;;;;;;13.03;10.70;;;;;;;20.35;37.45;99430.25;4933166;29;20733;-90
2023/02/06 07:36:23;;;;;;;14.50;10.60;;;;;;;20.11;37.32;99363.94;4925544;29;20228;-90
2023/02/06 07:38:49;;;;;;;14.30;10.80;;;;;;;20.25;37.66;99396.38;4943025;29;20211;-89
2023/02/06 07:41:16;;;;;;;19.90;12.13;;;;;;;19.96;37.01;99359.59;4914774;29;20774;-90
2023/02/06 07:43:43;;;;;;;18.50;12.90;;;;;;;19.89;35.05;99336.13;4927230;29;20620;-92
2023/02/06 07:46:10;;;;;;;17.50;12.27;;;;;;;19.69;35.64;99308.50;4922705;29;20231;-90
2023/02/06 07:48:37;;;;;;;18.07;12.10;;;;;;;20.09;36.32;99394.47;4915371;29;20296;-89
2023/02/06 07:51:05;;;;;;;13.63;11.13;;;;;;;19.62;36.96;99311.41;4942606;29;20231;-89
2023/02/06 07:53:31;;;;;;;15.43;10.93;;;;;;;19.55;37.14;99294.84;4965960;28;20207;-92
2023/02/06 07:55:58;;;;;;;11.30;7.13;;;;;;;19.89;40.12;99347.25;4944770;29;20230;-89
2023/02/06 07:58:25;;;;;;;9.97;6.77;;;;;;;20.21;42.44;99404.59;4958643;28;20194;-93
2023/02/06 08:00:53;;;;;;;7.90;6.77;;;;;;;19.91;42.94;99334.59;4910811;29;20200;-89
2023/02/06 08:03:20;;;;;;;15.60;7.30;;;;;;;20.07;42.43;99370.50;4943866;29;20227;-87
2023/02/06 08:05:46;;;;;;;11.23;7.43;;;;;;;19.84;41.82;99315.44;4908873;29;20227;-90
2023/02/06 08:08:13;;;;;;;11.17;7.33;;;;;;;20.18;42.31;99363.56;4939956;29;20208;-89
2023/02/06 08:10:39;;;;;;;11.00;7.53;;;;;;;20.25;42.17;99375.94;4938309;29;20201;-89
2023/02/06 08:13:06;;;;;;;11.77;7.27;;;;;;;20.40;41.73;99412.66;4938751;29;20227;-90
2023/02/06 08:15:33;;;;;;;9.53;7.20;;;;;;;19.74;41.66;99290.13;4910294;29;20228;-87
2023/02/06 08:18:00;;;;;;;8.70;6.70;;;;;;;20.42;41.42;99396.63;4942157;29;20204;-90
2023/02/06 08:20:27;;;;;;;10.13;7.50;;;;;;;20.34;41.75;99372.28;4939159;29;20213;-90
2023/02/06 08:22:53;;;;;;;10.67;7.40;;;;;;;20.18;41.83;99346.59;4924199;29;20220;-92
2023/02/06 08:25:20;;;;;;;9.93;6.80;;;;;;;20.04;41.52;99326.91;4923835;28;20200;-92
2023/02/06 08:27:47;;;;;;;13.67;6.70;;;;;;;20.19;41.34;99339.81;4956850;28;20220;-90
2023/02/06 08:30:13;;;;;;;10.30;7.33;;;;;;;19.21;40.99;99178.66;4959145;28;20265;-92
2023/02/06 08:32:40;;;;;;;12.13;7.37;;;;;;;19.65;41.37;99238.53;4958299;28;20188;-92
2023/02/06 08:35:07;;;;;;;11.27;6.47;;;;;;;20.17;41.42;99328.63;4938353;28;20189;-92
2023/02/06 08:37:33;;;;;;;8.70;6.57;;;;;;;20.10;41.38;99321.34;4956050;28;20221;-88
2023/02/06 08:40:00;;;;;;;8.37;6.80;;;;;;;19.99;41.28;99300.22;4944838;28;20196;-90
2023/02/06 08:42:26;;;;;;;7.23;5.90;;;;;;;19.98;41.18;99297.59;4949883;28;20197;-90
2023/02/06 08:44:53;;;;;;;10.50;7.83;;;;;;;19.37;39.56;99204.41;4956582;28;20193;-92
2023/02/06 08:47:19;;;;;;;9.43;7.93;;;;;;;19.95;38.49;99286.38;4945233;28;20231;-92
2023/02/06 08:49:49;;;;;;;10.20;8.57;;;;;;;19.30;38.66;99193.72;4944621;28;20216;-93
2023/02/06 08:52:16;;;;;;;9.37;7.43;;;;;;;19.86;39.26;99287.47;4944661;28;20237;-92
2023/02/06 08:54:43;;;;;;;9.90;8.27;;;;;;;20.25;39.02;99356.38;4961657;28;20280;-93
2023/02/06 08:57:11;;;;;;;10.03;7.70;;;;;;;19.45;39.15;99220.19;4954892;28;20204;-93
2023/02/06 08:59:38;;;;;;;8.00;7.17;;;;;;;20.29;39.34;99365.13;4975302;28;20184;-91
2023/02/06 09:02:05;;;;;;;9.13;7.80;;;;;;;20.14;39.34;99338.63;4959911;28;20176;-93
2023/02/06 09:04:36;;;;;;;10.07;7.40;;;;;;;20.01;39.56;99308.84;4974410;28;20272;-93
2023/02/06 09:07:03;;;;;;;9.37;7.47;;;;;;;19.39;39.61;99205.38;4961073;28;20224;-94
2023/02/06 09:09:29;;;;;;;9.63;7.27;;;;;;;19.22;39.76;99177.00;4945174;29;20199;-91
2023/02/06 09:12:00;;;;;;;8.87;7.07;;;;;;;19.60;39.99;99242.44;4949925;28;20197;-93
2023/02/06 09:14:28;;;;;;;7.77;6.97;;;;;;;19.75;40.22;99271.47;4946764;28;20247;-91
2023/02/06 09:16:56;;;;;;;8.07;7.07;;;;;;;19.03;40.28;99135.81;4972834;28;20209;-93
2023/02/06 09:19:24;;;;;;;8.73;6.53;;;;;;;19.96;40.15;99305.16;4945587;28;20235;-92
2023/02/06 09:21:50;;;;;;;8.87;7.23;;;;;;;20.15;40.24;99331.06;4943056;28;20212;-92
2023/02/06 09:24:17;;;;;;;8.43;6.80;;;;;;;19.63;40.29;99255.38;4960361;28;20214;-93
2023/02/06 09:26:44;;;;;;;8.70;6.97;;;;;;;20.23;40.52;99336.66;4975897;28;20241;-92
2023/02/06 09:29:27;;;;;;;8.23;6.50;;;;;;;19.77;40.29;99271.56;4948715;28;20208;-92
2023/02/06 09:31:56;;;;;;;8.70;6.50;;;;;;;20.50;40.26;99399.69;4958840;28;20232;-93
2023/02/06 09:34:24;;;;;;;8.63;6.63;;;;;;;20.25;40.43;99338.50;4955612;28;20212;-93
2023/02/06 09:36:53;;;;;;;7.20;6.10;;;;;;;19.89;40.64;99293.66;4945728;28;20205;-92
2023/02/06 09:39:20;;;;;;;8.30;6.90;;;;;;;20.41;40.96;99371.91;4955641;28;20188;-91
2023/02/06 09:41:51;;;;;;;7.63;6.83;;;;;;;19.21;40.50;99149.72;4944970;29;20219;-92
2023/02/06 09:44:21;;;;;;;8.03;6.87;;;;;;;20.51;40.90;99381.00;4958383;28;20212;-92
2023/02/06 09:46:57;;;;;;;6.73;6.03;;;;;;;20.25;40.77;99327.44;4929693;28;20204;-93
2023/02/06 09:49:38;;;;;;;9.13;5.93;;;;;;;19.13;40.79;99145.84;4961053;28;20203;-92
2023/02/06 09:52:37;;;;;;;6.90;6.00;;;;;;;20.51;40.78;99389.56;4929765;28;20192;-92
2023/02/06 09:55:13;;;;;;;7.53;6.07;;;;;;;20.52;40.72;99385.34;4945485;28;20189;-90
2023/02/06 09:57:48;;;;;;;6.87;5.83;;;;;;;20.51;40.83;99384.44;4975891;28;20244;-93
2023/02/06 10:00:57;;;;;;;6.53;5.83;;;;;;;20.51;40.85;99376.78;4966399;28;20204;-91
2023/02/06 10:03:35;;;;;;;7.10;5.90;;;;;;;20.51;40.90;99376.78;4949216;28;20232;-92
2023/02/06 10:06:13;;;;;;;8.10;6.30;;;;;;;20.51;40.26;99376.78;4977891;28;20239;-92
2023/02/06 10:08:43;;;;;;;6.47;5.80;;;;;;;19.36;39.01;99171.16;4960793;28;20203;-93
2023/02/06 10:11:16;;;;;;;9.97;5.80;;;;;;;19.19;39.13;99136.03;4969449;28;20201;-91
2023/02/06 10:13:51;;;;;;;6.57;5.87;;;;;;;19.70;39.69;99221.84;4961796;28;20201;-92
2023/02/06 10:16:35;;;;;;;6.87;5.70;;;;;;;20.41;39.67;99348.03;4945636;29;20243;-92
2023/02/06 10:19:08;;;;;;;6.90;5.33;;;;;;;19.67;39.42;99205.47;4947044;28;20204;-92
2023/02/06 10:21:41;;;;;;;7.00;5.73;;;;;;;20.05;39.43;99271.66;4956793;29;20296;-92
2023/02/06 10:24:17;;;;;;;5.90;5.30;;;;;;;20.48;39.82;99345.94;4945783;28;20236;-91
2023/02/06 10:26:44;;;;;;;6.77;5.30;;;;;;;20.26;40.29;99303.66;4957340;28;20232;-91
2023/02/06 10:29:16;;;;;;;5.77;5.13;;;;;;;19.32;39.92;99144.59;4957844;28;20252;-93
2023/02/06 10:31:49;;;;;;;5.17;4.67;;;;;;;20.48;39.99;99329.72;4929301;28;20205;-94
2023/02/06 10:34:44;;;;;;;5.87;5.07;;;;;;;20.02;40.05;99241.72;4974437;28;20205;-92
2023/02/06 10:37:36;;;;;;;6.20;5.00;;;;;;;19.65;40.14;99168.75;4946092;28;20208;-94
2023/02/06 10:40:34;;;;;;;5.23;4.67;;;;;;;19.41;40.36;99137.50;4971097;28;20240;-92
2023/02/06 10:43:02;;;;;;;6.77;4.93;;;;;;;19.14;40.53;99087.31;4945003;28;20226;-93
2023/02/06 10:45:34;;;;;;;6.17;5.23;;;;;;;20.49;40.40;99301.72;4945298;28;20224;-93
2023/02/06 10:48:30;;;;;;;5.10;4.50;;;;;;;20.51;40.46;99296.72;4975864;28;20231;-94
2023/02/06 10:51:18;;;;;;;5.57;4.50;;;;;;;19.44;41.03;99111.31;4955973;28;20187;-94
2023/02/06 10:53:53;;;;;;;6.00;5.00;;;;;;;19.30;41.00;99081.56;4943844;28;20259;-93
2023/02/06 10:56:23;;;;;;;4.70;4.23;;;;;;;19.17;41.18;99071.31;4943532;28;20222;-94
2023/02/06 10:58:51;;;;;;;5.37;4.70;;;;;;;19.98;41.07;99214.22;4973292;28;20219;-93
2023/02/06 11:01:18;;;;;;;7.40;4.90;;;;;;;20.26;40.99;99250.03;4975624;28;20184;-93
2023/02/06 11:03:57;;;;;;;5.23;4.57;;;;;;;19.67;40.98;99152.78;4958654;28;20212;-94
2023/02/06 11:06:24;;;;;;;5.00;4.10;;;;;;;19.95;40.94;99219.16;4944892;28;20204;-92
2023/02/06 11:08:51;;;;;;;4.63;4.13;;;;;;;19.63;40.60;99134.66;4974002;28;20185;-94
2023/02/06 11:11:39;;;;;;;5.70;4.30;;;;;;;20.25;40.49;99238.06;4959713;28;20192;-93
2023/02/06 11:14:14;;;;;;;6.23;4.17;;;;;;;20.50;40.36;99279.63;4957025;28;20185;-92
2023/02/06 11:16:41;;;;;;;4.63;3.83;;;;;;;19.72;40.74;99145.41;4973571;28;20240;-94
2023/02/06 11:19:29;;;;;;;7.03;4.40;;;;;;;18.88;40.60;98993.06;4943995;29;20256;-93
2023/02/06 11:22:15;;;;;;;4.60;4.00;;;;;;;19.69;40.65;99129.94;4974298;28;20211;-94
2023/02/06 11:25:00;;;;;;;5.03;3.87;;;;;;;19.45;40.87;99090.16;4944165;28;20229;-93
2023/02/06 11:27:27;;;;;;;3.90;3.40;;;;;;;19.70;40.52;99137.69;4960117;28;20211;-93
2023/02/06 11:29:54;;;;;;;4.60;3.90;;;;;;;19.78;40.74;99145.78;4943035;28;20211;-94
2023/02/06 11:32:50;;;;;;;3.93;3.53;;;;;;;20.34;40.56;99238.63;4958920;28;20247;-93
2023/02/06 11:35:32;;;;;;;4.47;3.57;;;;;;;19.95;40.38;99165.56;4951182;28;20188;-92
2023/02/06 11:38:07;;;;;;;4.40;3.63;;;;;;;20.52;40.66;99262.72;4941354;28;20200;-93
2023/02/06 11:40:33;;;;;;;5.73;3.90;;;;;;;20.33;40.47;99236.84;4953732;28;20211;-89
2023/02/06 11:43:26;;;;;;;5.30;3.60;;;;;;;19.97;40.69;99169.09;4952632;29;20209;-93
2023/02/06 11:46:23;;;;;;;5.77;3.93;;;;;;;20.10;41.29;99189.47;4966091;28;20214;-95